Time;durP1;ratioP1;P1;durP2;ratioP2;P2;SDS_P1;SDS_P2;PMS_P1;PMS_P2;Temp;Humidity;BMP_temperature;BMP_pressure;BME280_temperature;BME280_humidity;BME280_pressure;Samples;Min_cycle;Max_cycle;Signal;HPM_P1;HPM_P2
2023/12/14 00:01:51;;;;;;;12.80;8.15;;;;;;;7.49;59.90;93964.22;5104734;28;20035;-77
2023/12/14 00:04:17;;;;;;;12.00;8.30;;;;;;;7.47;59.75;93965.88;5107068;28;20035;-76
2023/12/14 00:06:42;;;;;;;14.43;9.32;;;;;;;7.49;59.68;93966.94;5104838;28;20123;-76
2023/12/14 00:09:08;;;;;;;12.02;8.57;;;;;;;7.45;59.92;93969.81;5107372;28;20039;-76
2023/12/14 00:11:38;;;;;;;14.18;8.43;;;;;;;7.44;60.02;93973.72;5105134;28;20032;-77
2023/12/14 00:14:03;;;;;;;14.25;8.85;;;;;;;7.42;60.00;93964.44;5106841;28;20062;-77
2023/12/14 00:16:30;;;;;;;12.60;8.05;;;;;;;7.43;59.97;93983.16;5106120;28;20044;-77
2023/12/14 00:18:55;;;;;;;13.63;8.98;;;;;;;7.36;60.29;93966.22;5106151;28;20088;-77
2023/12/14 00:21:21;;;;;;;16.05;9.65;;;;;;;7.35;60.40;93973.66;5106763;28;20070;-76
2023/12/14 00:23:46;;;;;;;18.65;10.63;;;;;;;7.37;60.44;93981.41;5105512;28;20024;-77
2023/12/14 00:26:12;;;;;;;16.40;10.75;;;;;;;7.31;60.37;93973.00;5106828;28;20357;-77
2023/12/14 00:28:38;;;;;;;16.00;9.98;;;;;;;7.27;60.53;93964.13;5105327;28;20090;-76
2023/12/14 00:31:03;;;;;;;15.10;10.02;;;;;;;7.33;60.45;93970.56;5106876;28;20019;-76
2023/12/14 00:33:29;;;;;;;15.60;10.20;;;;;;;7.31;60.47;93983.94;5105411;28;20110;-76
2023/12/14 00:35:54;;;;;;;14.98;10.32;;;;;;;7.32;60.49;93981.97;5106452;28;20371;-76
2023/12/14 00:38:19;;;;;;;15.40;10.00;;;;;;;7.27;60.54;93963.38;5106540;28;20054;-76
2023/12/14 00:40:45;;;;;;;16.75;10.57;;;;;;;7.25;60.72;93988.41;5105187;28;20547;-77
2023/12/14 00:43:10;;;;;;;15.00;9.63;;;;;;;7.24;60.71;93991.59;5106861;28;20020;-77
2023/12/14 00:45:54;;;;;;;12.48;8.48;;;;;;;7.31;60.70;93951.13;5104773;28;20030;-74
2023/12/14 00:48:20;;;;;;;13.73;8.57;;;;;;;7.19;60.77;93979.22;5106778;28;20157;-77
2023/12/14 00:50:45;;;;;;;14.50;9.43;;;;;;;7.22;60.89;93972.88;5109002;28;20102;-76
2023/12/14 00:53:10;;;;;;;14.40;9.02;;;;;;;7.19;60.89;93984.69;5109202;28;20102;-75
2023/12/14 00:55:36;;;;;;;11.73;8.15;;;;;;;7.14;61.06;93982.50;5110359;28;20024;-75
2023/12/14 00:58:01;;;;;;;14.50;8.82;;;;;;;7.15;60.87;93978.56;5109515;28;20448;-75
2023/12/14 01:00:26;;;;;;;13.38;8.57;;;;;;;7.15;60.90;93990.28;5110632;28;20026;-75
2023/12/14 01:02:52;;;;;;;11.80;8.48;;;;;;;7.10;61.10;93990.03;5109204;28;20417;-76
2023/12/14 01:05:17;;;;;;;12.90;8.80;;;;;;;7.08;61.03;93974.09;5110527;28;20484;-77
2023/12/14 01:07:43;;;;;;;13.15;8.50;;;;;;;7.13;60.86;93973.56;5108567;28;20039;-76
2023/12/14 01:10:08;;;;;;;11.80;8.27;;;;;;;7.14;61.14;93972.34;5110385;28;20038;-77
2023/12/14 01:12:34;;;;;;;14.57;8.90;;;;;;;7.15;61.17;93975.84;5108064;28;20136;-77
2023/12/14 01:14:59;;;;;;;12.73;8.48;;;;;;;7.10;61.12;93973.66;5109746;28;20031;-76
2023/12/14 01:17:25;;;;;;;12.02;7.95;;;;;;;7.08;61.21;93978.81;5110188;28;20047;-76
2023/12/14 01:19:50;;;;;;;16.10;9.35;;;;;;;7.08;61.38;93976.81;5109128;28;20015;-77
2023/12/14 01:22:15;;;;;;;12.52;8.38;;;;;;;7.04;61.35;93959.75;5110484;28;20034;-76
2023/12/14 01:24:41;;;;;;;16.05;8.57;;;;;;;7.06;61.35;93964.81;5108260;28;20020;-77
2023/12/14 01:27:06;;;;;;;13.35;8.38;;;;;;;7.11;61.14;93970.50;5109061;28;20015;-76
2023/12/14 01:29:31;;;;;;;14.52;9.63;;;;;;;7.01;61.61;93968.09;5107231;28;20035;-75
2023/12/14 01:31:57;;;;;;;12.10;8.70;;;;;;;7.00;61.36;93961.09;5109984;28;20034;-77
2023/12/14 01:34:22;;;;;;;13.60;9.52;;;;;;;6.97;61.61;93962.72;5109805;27;20024;-77
2023/12/14 01:36:48;;;;;;;13.57;9.50;;;;;;;6.98;61.59;93977.16;5108552;28;20136;-77
2023/12/14 01:39:13;;;;;;;13.13;8.55;;;;;;;7.02;61.49;93958.69;5108656;28;20049;-77
2023/12/14 01:41:38;;;;;;;14.73;8.95;;;;;;;6.99;61.22;93954.84;5108266;28;20110;-77
2023/12/14 01:44:04;;;;;;;16.75;8.43;;;;;;;6.95;61.21;93967.09;5110023;28;20418;-77
2023/12/14 01:46:29;;;;;;;13.57;8.63;;;;;;;6.98;61.21;93955.28;5107837;28;20063;-77
2023/12/14 01:48:55;;;;;;;12.48;7.95;;;;;;;6.94;61.39;93958.16;5110010;28;20035;-76
2023/12/14 01:51:20;;;;;;;14.20;8.18;;;;;;;6.91;61.44;93957.03;5108791;28;20027;-75
2023/12/14 01:53:45;;;;;;;14.18;8.50;;;;;;;6.90;61.53;93963.72;5108693;27;20611;-76
2023/12/14 01:56:11;;;;;;;11.93;8.10;;;;;;;6.85;61.38;93955.28;5108052;28;20149;-75
2023/12/14 01:58:36;;;;;;;14.55;8.27;;;;;;;6.78;61.77;93956.28;5106539;28;20389;-76
2023/12/14 02:01:07;;;;;;;13.50;8.43;;;;;;;6.63;62.32;93949.69;5108377;27;20020;-76
2023/12/14 02:03:33;;;;;;;12.55;7.72;;;;;;;6.53;62.61;93951.53;5107491;28;20063;-75
2023/12/14 02:05:58;;;;;;;14.25;8.20;;;;;;;6.51;62.62;93948.47;5109041;28;20485;-76
2023/12/14 02:08:24;;;;;;;11.02;7.20;;;;;;;6.52;62.62;93933.63;5108073;28;20054;-76
2023/12/14 02:10:50;;;;;;;12.32;7.50;;;;;;;6.52;62.79;93949.22;5109347;28;20020;-75
2023/12/14 02:13:16;;;;;;;12.43;8.25;;;;;;;6.47;62.86;93939.63;5108800;28;20055;-75
2023/12/14 02:15:41;;;;;;;10.40;7.15;;;;;;;6.51;62.91;93931.31;5107686;28;20127;-76
2023/12/14 02:18:07;;;;;;;10.73;6.90;;;;;;;6.57;62.71;93943.25;5109351;28;20031;-76
2023/12/14 02:20:32;;;;;;;13.07;7.35;;;;;;;6.69;62.41;93941.72;5107159;28;20031;-75
2023/12/14 02:22:58;;;;;;;12.27;7.53;;;;;;;6.68;62.32;93924.56;5109199;28;20042;-78
2023/12/14 02:25:24;;;;;;;11.40;7.47;;;;;;;6.72;62.09;93940.88;5107586;28;20027;-76
2023/12/14 02:27:51;;;;;;;11.88;7.75;;;;;;;6.70;62.17;93921.41;5108732;28;20027;-76
2023/12/14 02:30:17;;;;;;;9.98;7.13;;;;;;;6.76;62.12;93925.13;5107086;28;20477;-76
2023/12/14 02:32:42;;;;;;;12.32;7.97;;;;;;;6.79;62.06;93946.88;5106396;28;20029;-76
2023/12/14 02:35:08;;;;;;;12.55;8.13;;;;;;;6.80;62.00;93920.31;5108999;28;20475;-76
2023/12/14 02:37:36;;;;;;;11.63;7.72;;;;;;;6.81;62.08;93927.31;5105540;28;20085;-76
2023/12/14 02:40:03;;;;;;;13.10;8.18;;;;;;;6.95;61.81;93934.31;5108968;28;20103;-76
2023/12/14 02:42:29;;;;;;;11.55;8.38;;;;;;;6.88;61.76;93948.94;5105700;28;20073;-75
2023/12/14 02:44:54;;;;;;;13.32;8.48;;;;;;;6.90;61.59;93919.22;5108837;28;20028;-76
2023/12/14 02:47:20;;;;;;;11.30;7.43;;;;;;;6.79;61.92;93951.56;5107415;28;20496;-75
2023/12/14 02:49:45;;;;;;;11.23;7.50;;;;;;;6.77;62.23;93907.56;5107994;28;20441;-76
2023/12/14 02:52:10;;;;;;;12.63;7.75;;;;;;;6.84;62.18;93970.91;5108287;28;20126;-76
2023/12/14 02:54:40;;;;;;;9.05;6.57;;;;;;;6.80;62.30;93928.50;5105469;28;20128;-77
2023/12/14 02:57:05;;;;;;;9.32;6.50;;;;;;;6.82;62.34;93945.97;5108530;28;20031;-75
2023/12/14 02:59:30;;;;;;;10.18;6.20;;;;;;;6.86;62.14;93943.16;5106539;28;20016;-76
2023/12/14 03:01:56;;;;;;;8.32;5.80;;;;;;;6.91;62.08;93920.75;5108474;28;20028;-75
2023/12/14 03:04:21;;;;;;;7.97;5.97;;;;;;;6.93;62.42;93948.41;5105456;28;20106;-76
2023/12/14 03:06:47;;;;;;;11.00;6.32;;;;;;;7.09;61.80;93956.50;5107549;27;20027;-78
2023/12/14 03:09:12;;;;;;;9.07;6.53;;;;;;;7.11;61.71;93925.97;5107867;28;20496;-77
2023/12/14 03:11:38;;;;;;;13.20;7.15;;;;;;;7.15;61.51;93926.63;5106432;28;20027;-75
2023/12/14 03:14:03;;;;;;;9.27;5.88;;;;;;;7.17;61.36;93938.69;5106581;28;20043;-76
2023/12/14 03:16:29;;;;;;;8.32;6.38;;;;;;;7.13;61.51;93931.78;5106526;28;20111;-76
2023/12/14 03:18:55;;;;;;;8.00;6.38;;;;;;;7.19;61.45;93914.41;5108003;28;20031;-77
2023/12/14 03:21:20;;;;;;;9.43;6.43;;;;;;;7.18;61.33;93932.00;5106489;28;20088;-75
2023/12/14 03:23:46;;;;;;;9.77;6.47;;;;;;;7.30;61.18;93921.50;5108112;28;20453;-77
2023/12/14 03:26:11;;;;;;;10.10;7.00;;;;;;;7.29;61.01;93920.72;5105408;28;20023;-76
2023/12/14 03:28:37;;;;;;;7.97;5.85;;;;;;;7.27;61.17;93911.44;5105834;28;20024;-76
2023/12/14 03:31:03;;;;;;;11.98;6.85;;;;;;;7.27;61.17;93916.91;5107840;28;20046;-75
2023/12/14 03:33:28;;;;;;;9.35;6.43;;;;;;;7.41;60.76;93919.19;5104839;28;20119;-76
2023/12/14 03:35:53;;;;;;;6.75;5.80;;;;;;;7.38;60.86;93885.25;5107579;28;20035;-76
2023/12/14 03:38:19;;;;;;;8.23;5.85;;;;;;;7.37;60.74;93902.13;5105893;27;20047;-76
2023/12/14 03:40:45;;;;;;;8.13;5.53;;;;;;;7.40;60.85;93904.75;5107385;28;20027;-75
2023/12/14 03:43:10;;;;;;;8.02;5.32;;;;;;;7.41;60.38;93900.03;5106167;28;20023;-76
2023/12/14 03:45:35;;;;;;;10.23;5.63;;;;;;;7.43;60.76;93862.84;5106917;28;20023;-76
2023/12/14 03:48:01;;;;;;;8.80;5.88;;;;;;;7.53;60.48;93903.94;5106797;28;20539;-76
2023/12/14 03:50:27;;;;;;;9.50;6.00;;;;;;;7.53;60.39;93888.31;5106378;28;20437;-77
2023/12/14 03:52:53;;;;;;;9.80;5.60;;;;;;;7.52;60.41;93873.09;5107378;28;20107;-76
2023/12/14 03:55:18;;;;;;;8.52;5.28;;;;;;;7.50;60.43;93872.00;5105729;28;20098;-78
2023/12/14 03:57:44;;;;;;;9.38;5.38;;;;;;;7.52;60.47;93884.03;5107139;28;20370;-77
2023/12/14 04:00:13;;;;;;;8.93;5.97;;;;;;;7.49;60.23;93849.34;5105704;28;20024;-77
2023/12/14 04:02:39;;;;;;;7.78;5.28;;;;;;;7.62;59.87;93891.09;5106927;28;20055;-76
2023/12/14 04:05:06;;;;;;;8.10;5.38;;;;;;;7.58;60.08;93867.84;5105507;28;20036;-75
2023/12/14 04:07:31;;;;;;;8.60;5.97;;;;;;;7.62;60.20;93890.34;5105515;28;20031;-76
2023/12/14 04:09:57;;;;;;;12.25;6.53;;;;;;;7.61;59.95;93872.41;5106832;28;20027;-77
2023/12/14 04:12:22;;;;;;;6.80;5.10;;;;;;;7.64;60.10;93891.44;5105664;27;20106;-75
2023/12/14 04:14:48;;;;;;;6.85;5.80;;;;;;;7.60;60.17;93879.09;5106996;28;20028;-75
2023/12/14 04:17:13;;;;;;;9.20;6.13;;;;;;;7.65;59.97;93898.44;5105420;28;20020;-75
2023/12/14 04:19:39;;;;;;;9.60;5.93;;;;;;;7.61;59.96;93903.25;5106884;28;20051;-76
2023/12/14 04:22:05;;;;;;;9.57;6.57;;;;;;;7.63;60.13;93892.66;5104290;28;20026;-76
2023/12/14 04:24:30;;;;;;;11.50;8.15;;;;;;;7.77;59.78;93917.97;5105953;28;20047;-76
2023/12/14 04:26:56;;;;;;;11.32;8.20;;;;;;;7.66;59.87;93899.19;5106291;28;20077;-78
2023/12/14 04:29:21;;;;;;;9.77;7.68;;;;;;;7.64;59.96;93915.28;5105881;28;20045;-76
2023/12/14 04:31:47;;;;;;;10.73;7.68;;;;;;;7.65;60.15;93879.28;5106619;28;20016;-77
2023/12/14 04:34:15;;;;;;;20.80;11.27;;;;;;;7.69;59.85;93906.53;5105150;28;20024;-77
2023/12/14 04:36:44;;;;;;;15.95;10.27;;;;;;;7.64;59.88;93905.13;5106753;28;20023;-76
2023/12/14 04:39:10;;;;;;;18.20;12.02;;;;;;;7.61;60.22;93895.03;5105762;28;20114;-76
2023/12/14 04:41:35;;;;;;;19.27;11.82;;;;;;;7.64;60.17;93882.47;5106804;28;20106;-78
2023/12/14 04:44:00;;;;;;;16.42;10.88;;;;;;;7.67;60.11;93903.44;5106147;28;20024;-76
2023/12/14 04:46:26;;;;;;;13.38;10.05;;;;;;;7.55;60.36;93894.09;5105721;28;20027;-75
2023/12/14 04:48:51;;;;;;;12.80;9.75;;;;;;;7.55;60.43;93921.44;5106428;28;20436;-77
2023/12/14 04:51:16;;;;;;;13.30;9.75;;;;;;;7.55;60.17;93887.84;5105015;28;20028;-76
2023/12/14 04:53:42;;;;;;;13.00;9.70;;;;;;;7.66;60.17;93923.81;5106455;28;20024;-76
2023/12/14 04:56:11;;;;;;;14.35;10.05;;;;;;;7.45;60.43;93904.19;5104842;28;20055;-76
2023/12/14 04:58:38;;;;;;;16.02;10.95;;;;;;;7.44;60.67;93907.34;5104973;28;20409;-76
2023/12/14 05:01:03;;;;;;;15.75;10.85;;;;;;;7.42;60.76;93932.41;5103937;28;20024;-76
2023/12/14 05:03:29;;;;;;;18.17;11.77;;;;;;;7.40;60.77;93912.19;5106012;28;20020;-77
2023/12/14 05:05:54;;;;;;;16.83;11.60;;;;;;;7.38;60.65;93893.47;5105551;28;20032;-77
2023/12/14 05:08:19;;;;;;;17.23;12.43;;;;;;;7.44;60.54;93894.44;5103818;28;20110;-77
2023/12/14 05:10:45;;;;;;;18.80;12.95;;;;;;;7.32;61.01;93878.81;5106573;28;20389;-78
2023/12/14 05:13:10;;;;;;;18.77;12.93;;;;;;;7.23;61.17;93892.41;5104734;28;20050;-78
2023/12/14 05:15:35;;;;;;;20.15;14.57;;;;;;;7.27;61.19;93898.53;5106217;28;20575;-79
2023/12/14 05:18:01;;;;;;;20.10;12.95;;;;;;;7.23;60.99;93908.81;5105026;28;20454;-76
2023/12/14 05:20:26;;;;;;;18.02;14.13;;;;;;;7.23;61.28;93913.53;5106220;28;20034;-76
2023/12/14 05:22:52;;;;;;;22.10;15.15;;;;;;;7.22;61.40;93933.84;5105377;28;20032;-77
2023/12/14 05:25:17;;;;;;;22.85;15.63;;;;;;;7.19;61.41;93913.63;5105188;28;20028;-76
2023/12/14 05:27:42;;;;;;;23.60;16.17;;;;;;;7.15;61.53;93894.59;5105955;28;20046;-77
2023/12/14 05:30:08;;;;;;;20.33;15.00;;;;;;;7.16;61.88;93918.00;5103241;28;20011;-77
2023/12/14 05:32:33;;;;;;;21.30;15.65;;;;;;;7.15;61.97;93923.91;5106310;28;20031;-75
2023/12/14 05:34:59;;;;;;;18.88;14.57;;;;;;;7.15;62.02;93924.66;5104787;28;20047;-77
2023/12/14 05:37:25;;;;;;;19.88;15.07;;;;;;;7.11;62.09;93924.03;5109971;28;20031;-76
2023/12/14 05:39:50;;;;;;;22.60;15.98;;;;;;;7.17;61.76;93948.84;5108657;28;20026;-77
2023/12/14 05:42:17;;;;;;;21.95;14.82;;;;;;;7.26;61.50;93909.91;5109239;28;20024;-76
2023/12/14 05:44:44;;;;;;;20.05;15.55;;;;;;;7.23;61.66;93919.75;5109054;28;20474;-76
2023/12/14 05:47:09;;;;;;;21.08;14.70;;;;;;;7.29;61.65;93923.47;5108294;28;20439;-75
2023/12/14 05:49:35;;;;;;;22.73;16.85;;;;;;;7.18;61.79;93933.97;5109738;28;20028;-78
2023/12/14 05:52:00;;;;;;;21.05;15.35;;;;;;;7.15;61.78;93932.09;5107649;28;20553;-75
2023/12/14 05:54:26;;;;;;;22.23;16.33;;;;;;;7.17;61.93;93946.13;5108323;28;20562;-76
2023/12/14 05:56:51;;;;;;;20.48;15.68;;;;;;;7.19;61.91;93932.78;5107759;28;20024;-76
2023/12/14 05:59:17;;;;;;;22.50;14.90;;;;;;;7.18;62.09;93915.59;5109190;28;20548;-75
2023/12/14 06:01:43;;;;;;;22.48;16.25;;;;;;;7.25;61.70;93933.75;5108689;28;20035;-75
2023/12/14 06:04:08;;;;;;;20.60;15.45;;;;;;;7.26;62.12;93951.66;5106899;28;20035;-75
2023/12/14 06:06:34;;;;;;;19.67;13.95;;;;;;;7.17;62.08;93951.59;5108924;28;20417;-76
2023/12/14 06:09:01;;;;;;;15.55;11.55;;;;;;;7.15;61.94;93916.47;5106308;28;20039;-76
2023/12/14 06:11:26;;;;;;;16.90;12.95;;;;;;;7.21;61.87;93949.47;5090811;28;20126;-76
2023/12/14 06:13:51;;;;;;;13.18;8.77;;;;;;;7.19;61.77;93943.69;5106992;28;20601;-77
2023/12/14 06:16:17;;;;;;;12.93;8.63;;;;;;;7.23;61.50;93929.94;5107802;28;20032;-76
2023/12/14 06:18:43;;;;;;;11.65;9.10;;;;;;;7.29;61.25;93939.09;5108061;28;20023;-76
2023/12/14 06:21:08;;;;;;;14.93;9.02;;;;;;;7.27;61.32;93936.78;5107247;28;20096;-77
2023/12/14 06:23:35;;;;;;;16.30;9.55;;;;;;;7.29;61.39;93952.78;5107191;28;20035;-76
2023/12/14 06:26:03;;;;;;;12.77;8.93;;;;;;;7.29;61.24;93945.34;5107342;28;20026;-77
2023/12/14 06:28:30;;;;;;;13.40;8.40;;;;;;;7.34;61.23;93966.66;5109316;28;20015;-76
2023/12/14 06:30:56;;;;;;;11.60;7.78;;;;;;;7.36;61.04;93958.00;5107350;28;20039;-78
2023/12/14 06:33:21;;;;;;;12.88;8.55;;;;;;;7.35;60.99;93951.78;5108984;28;20443;-77
2023/12/14 06:35:47;;;;;;;17.52;10.45;;;;;;;7.45;60.97;93961.63;5107277;28;20096;-77
2023/12/14 06:38:12;;;;;;;23.52;12.50;;;;;;;7.44;61.03;93962.03;5108473;28;20020;-76
2023/12/14 06:40:38;;;;;;;19.52;11.75;;;;;;;7.48;60.99;93965.44;5108124;28;20089;-77
2023/12/14 06:43:06;;;;;;;38.05;15.23;;;;;;;7.54;61.05;93977.34;5107401;28;20256;-76
2023/12/14 06:45:31;;;;;;;29.45;12.50;;;;;;;7.58;60.94;93971.75;5107138;28;20035;-78
2023/12/14 06:47:57;;;;;;;25.70;13.02;;;;;;;7.67;60.51;93988.25;5106167;28;20027;-76
2023/12/14 06:50:22;;;;;;;15.90;10.05;;;;;;;7.49;60.51;93966.19;5107379;28;20541;-76
2023/12/14 06:52:47;;;;;;;17.67;10.90;;;;;;;7.74;60.07;93968.88;5107034;28;20019;-76
2023/12/14 06:55:14;;;;;;;16.08;10.95;;;;;;;7.84;59.88;93994.34;5108375;28;20027;-76
2023/12/14 06:57:42;;;;;;;16.17;11.85;;;;;;;7.83;59.78;93962.72;5107103;27;20423;-77
2023/12/14 07:00:09;;;;;;;16.85;11.02;;;;;;;7.83;59.76;93970.94;5107620;28;20038;-76
2023/12/14 07:02:34;;;;;;;19.13;12.43;;;;;;;7.87;59.70;93975.09;5108091;28;20170;-77
2023/12/14 07:05:00;;;;;;;20.27;13.00;;;;;;;7.80;60.06;93986.28;5104940;28;20027;-76
2023/12/14 07:07:25;;;;;;;18.88;13.88;;;;;;;7.86;59.99;93989.97;5108146;28;20027;-77
2023/12/14 07:09:51;;;;;;;20.77;15.25;;;;;;;7.90;59.90;93982.38;5104781;28;20092;-76
2023/12/14 07:12:17;;;;;;;19.80;14.40;;;;;;;7.95;59.76;93992.78;5107923;28;20020;-76
2023/12/14 07:14:43;;;;;;;20.85;14.35;;;;;;;7.99;59.67;94011.81;5105190;28;20020;-77
2023/12/14 07:17:08;;;;;;;18.77;13.48;;;;;;;8.01;59.38;93992.22;5107589;28;20022;-78
2023/12/14 07:19:35;;;;;;;21.65;14.45;;;;;;;8.11;59.26;94002.03;5105956;28;20037;-77
2023/12/14 07:22:00;;;;;;;23.30;16.02;;;;;;;8.14;59.58;94034.00;5106478;28;20053;-77
2023/12/14 07:24:26;;;;;;;22.20;14.02;;;;;;;8.11;59.13;93996.56;5107761;28;20020;-76
2023/12/14 07:26:51;;;;;;;22.92;14.40;;;;;;;8.24;59.03;94022.69;5104341;28;20027;-78
2023/12/14 07:29:17;;;;;;;19.80;14.38;;;;;;;8.30;58.97;94028.38;5108053;28;20103;-77
2023/12/14 07:31:42;;;;;;;18.75;13.80;;;;;;;8.32;58.81;93998.56;5104516;28;20011;-77
2023/12/14 07:34:07;;;;;;;24.85;14.93;;;;;;;8.40;58.61;94015.53;5107420;28;20460;-76
2023/12/14 07:36:33;;;;;;;16.80;12.55;;;;;;;8.35;58.54;93994.16;5105198;28;20043;-80
2023/12/14 07:39:00;;;;;;;19.15;13.70;;;;;;;8.50;58.20;94017.16;5105432;28;20371;-76
2023/12/14 07:41:29;;;;;;;23.88;13.10;;;;;;;8.48;58.22;94003.88;5107341;28;20471;-75
2023/12/14 07:43:55;;;;;;;25.27;12.90;;;;;;;8.49;58.15;94035.56;5105792;28;20244;-75
2023/12/14 07:46:20;;;;;;;24.60;17.88;;;;;;;8.45;58.39;94023.19;5107317;28;20107;-76
2023/12/14 07:48:46;;;;;;;20.38;12.05;;;;;;;8.55;57.71;94041.22;5105769;28;20111;-75
2023/12/14 07:51:11;;;;;;;22.67;15.68;;;;;;;8.59;57.83;94008.97;5107480;28;20032;-75
2023/12/14 07:53:36;;;;;;;18.88;13.27;;;;;;;8.77;57.51;94041.22;5105154;28;20424;-77
2023/12/14 07:56:02;;;;;;;18.13;12.10;;;;;;;8.73;57.29;94019.44;5106497;28;20032;-75
2023/12/14 07:58:28;;;;;;;18.40;11.55;;;;;;;8.87;57.13;94023.63;5105895;28;20022;-77
2023/12/14 08:00:53;;;;;;;17.38;13.00;;;;;;;9.04;56.46;94018.69;5105771;28;20057;-75
2023/12/14 08:03:18;;;;;;;21.25;14.80;;;;;;;9.60;55.53;94012.25;5107055;28;20046;-76
2023/12/14 08:05:44;;;;;;;19.70;14.75;;;;;;;10.02;53.91;94050.91;5104808;28;20035;-76
2023/12/14 08:08:09;;;;;;;23.20;15.00;;;;;;;10.17;53.35;94036.63;5107103;28;20024;-76
2023/12/14 08:10:35;;;;;;;25.38;16.67;;;;;;;10.25;53.45;94033.13;5105709;28;20114;-76
2023/12/14 08:13:00;;;;;;;19.92;15.57;;;;;;;10.17;53.54;94029.16;5106132;28;20043;-75
2023/12/14 08:15:25;;;;;;;21.42;15.25;;;;;;;10.19;53.58;94029.44;5106346;28;20024;-76
2023/12/14 08:17:51;;;;;;;22.58;16.00;;;;;;;10.19;53.26;94018.44;5105823;28;20042;-76
2023/12/14 08:20:16;;;;;;;24.08;16.83;;;;;;;10.20;53.38;94046.69;5106513;28;20058;-76
2023/12/14 08:22:44;;;;;;;21.35;16.73;;;;;;;10.14;53.50;94015.56;5105602;28;20478;-75
2023/12/14 08:25:14;;;;;;;27.60;20.08;;;;;;;10.15;53.68;94031.59;5106754;28;20073;-76
2023/12/14 08:27:40;;;;;;;25.38;17.65;;;;;;;10.17;53.51;94029.16;5105269;28;20024;-76
2023/12/14 08:30:06;;;;;;;32.38;19.17;;;;;;;10.19;53.51;94040.44;5105105;28;20024;-76
2023/12/14 08:32:31;;;;;;;25.98;17.52;;;;;;;10.17;53.61;94042.88;5104256;28;20040;-77
2023/12/14 08:34:56;;;;;;;24.92;18.67;;;;;;;10.29;53.59;94038.50;5106191;28;20533;-76
2023/12/14 08:37:22;;;;;;;27.52;18.42;;;;;;;10.44;53.56;94027.69;5106214;28;20080;-75
2023/12/14 08:39:47;;;;;;;20.92;13.05;;;;;;;10.53;52.67;94031.16;5105397;28;20024;-77
2023/12/14 08:42:12;;;;;;;22.00;14.02;;;;;;;10.80;52.42;94035.91;5105453;28;20524;-77
2023/12/14 08:44:41;;;;;;;21.63;15.82;;;;;;;10.94;52.13;94036.47;5104819;28;20489;-76
2023/12/14 08:47:08;;;;;;;20.92;13.10;;;;;;;10.99;51.92;94038.63;5106591;28;20032;-76
2023/12/14 08:49:34;;;;;;;18.38;12.98;;;;;;;10.98;52.04;94037.09;5105541;28;20526;-76
2023/12/14 08:52:00;;;;;;;24.08;13.40;;;;;;;11.08;51.62;94028.38;5106211;28;20059;-76
2023/12/14 08:54:25;;;;;;;19.10;11.07;;;;;;;11.39;51.01;94033.63;5105608;28;20422;-77
2023/12/14 08:56:50;;;;;;;21.17;11.90;;;;;;;11.66;50.83;94046.53;5105733;28;20058;-76
2023/12/14 08:59:16;;;;;;;17.45;10.98;;;;;;;11.85;50.20;94052.72;5106354;28;20471;-75
2023/12/14 09:01:41;;;;;;;16.40;10.23;;;;;;;11.91;49.69;94034.34;5103413;28;20030;-75
2023/12/14 09:04:06;;;;;;;17.73;10.70;;;;;;;12.24;49.08;94058.34;5106075;28;20023;-77
2023/12/14 09:06:32;;;;;;;13.43;10.20;;;;;;;12.28;49.03;94056.19;5103168;28;20027;-75
2023/12/14 09:08:58;;;;;;;17.98;10.02;;;;;;;12.31;49.13;94054.47;5104562;28;20023;-75
2023/12/14 09:11:23;;;;;;;18.15;10.65;;;;;;;12.44;48.82;94046.72;5108345;28;20098;-77
2023/12/14 09:13:48;;;;;;;16.17;11.27;;;;;;;12.59;48.45;94027.47;5109395;28;20040;-76
2023/12/14 09:16:14;;;;;;;19.52;10.27;;;;;;;12.63;48.46;94034.34;5109865;28;20015;-77
2023/12/14 09:18:39;;;;;;;13.70;9.32;;;;;;;12.59;47.68;94027.47;5109046;28;20028;-76
2023/12/14 09:21:05;;;;;;;14.88;9.38;;;;;;;12.55;47.91;94027.66;5110153;28;20046;-77
2023/12/14 09:23:30;;;;;;;19.30;11.80;;;;;;;12.59;48.23;94035.75;5108559;28;20015;-77
2023/12/14 09:25:56;;;;;;;16.92;10.55;;;;;;;12.62;48.02;94037.56;5108508;28;20393;-76
2023/12/14 09:28:22;;;;;;;19.00;11.73;;;;;;;12.60;48.13;94031.75;5107414;28;20320;-76
2023/12/14 09:30:47;;;;;;;23.23;11.93;;;;;;;12.65;48.10;94044.88;5108356;28;20036;-76
2023/12/14 09:33:13;;;;;;;20.02;10.65;;;;;;;12.70;48.11;94058.03;5109190;28;20634;-76
2023/12/14 09:35:38;;;;;;;15.82;11.30;;;;;;;12.68;48.33;94066.03;5107650;28;20023;-77
2023/12/14 09:38:04;;;;;;;25.45;14.70;;;;;;;12.70;48.58;94060.78;5109798;28;20095;-76
2023/12/14 09:40:30;;;;;;;37.75;24.23;;;;;;;12.81;49.08;94063.75;5108353;28;20032;-76
2023/12/14 09:42:55;;;;;;;49.50;30.60;;;;;;;12.82;49.83;94064.53;5109898;28;20070;-76
2023/12/14 09:45:24;;;;;;;45.95;28.10;;;;;;;12.97;50.05;94065.31;5108126;28;20130;-76
2023/12/14 09:47:49;;;;;;;39.67;26.10;;;;;;;13.06;50.14;94062.47;5109602;27;20034;-76
2023/12/14 09:50:16;;;;;;;37.15;24.33;;;;;;;13.32;49.85;94059.19;5108586;27;20027;-76
2023/12/14 09:52:45;;;;;;;35.33;25.20;;;;;;;13.27;49.78;94053.09;5108985;28;20059;-78
2023/12/14 09:55:11;;;;;;;44.67;24.15;;;;;;;13.29;49.69;94063.66;5108849;28;20093;-76
2023/12/14 09:57:36;;;;;;;37.03;23.08;;;;;;;13.26;49.57;94065.38;5108359;28;20020;-76
2023/12/14 10:00:04;;;;;;;38.58;22.80;;;;;;;13.18;49.78;94069.69;5109510;28;20027;-76
2023/12/14 10:02:30;;;;;;;34.38;22.75;;;;;;;13.08;49.85;94073.81;5107672;28;20055;-76
2023/12/14 10:04:55;;;;;;;32.80;21.58;;;;;;;13.00;49.91;94065.13;5108857;28;20118;-76
2023/12/14 10:07:24;;;;;;;33.28;22.48;;;;;;;12.97;49.85;94071.59;5108193;27;20466;-77
2023/12/14 10:09:50;;;;;;;32.30;20.20;;;;;;;12.89;49.93;94058.63;5107445;28;20016;-75
2023/12/14 10:12:15;;;;;;;27.48;19.98;;;;;;;12.85;49.94;94071.88;5108619;28;20100;-76
2023/12/14 10:14:40;;;;;;;32.33;19.65;;;;;;;12.82;50.12;94068.03;5108082;28;20030;-76
2023/12/14 10:17:24;;;;;;;30.80;19.48;;;;;;;12.70;50.23;94064.31;5108968;28;20157;-75
2023/12/14 10:19:49;;;;;;;33.08;19.75;;;;;;;12.73;50.52;94063.38;5107462;28;20244;-76
2023/12/14 10:22:17;;;;;;;34.20;19.38;;;;;;;12.71;50.41;94063.06;5107945;28;20110;-75
2023/12/14 10:24:49;;;;;;;32.95;18.92;;;;;;;12.68;50.77;94053.00;5107715;28;20024;-76
2023/12/14 10:27:15;;;;;;;33.15;17.95;;;;;;;12.71;50.87;94051.28;5106919;28;20082;-75
2023/12/14 10:29:41;;;;;;;31.63;17.75;;;;;;;12.70;51.09;94053.28;5107473;28;20051;-76
2023/12/14 10:32:08;;;;;;;25.40;14.40;;;;;;;12.78;51.63;94064.69;5107545;28;20532;-76
2023/12/14 10:34:35;;;;;;;20.30;12.23;;;;;;;12.74;52.20;94066.88;5107300;28;20046;-75
2023/12/14 10:37:01;;;;;;;22.48;12.80;;;;;;;12.75;52.53;94071.16;5105875;28;20072;-75
2023/12/14 10:39:28;;;;;;;16.38;10.77;;;;;;;12.71;52.84;94078.84;5109147;28;20023;-76
2023/12/14 10:41:56;;;;;;;13.70;8.85;;;;;;;12.72;53.63;94072.09;5106153;28;20116;-77
2023/12/14 10:44:25;;;;;;;15.18;9.25;;;;;;;12.68;54.57;94077.06;5106771;28;20028;-77
2023/12/14 10:46:53;;;;;;;16.48;8.50;;;;;;;12.56;55.29;94076.06;5107823;28;20374;-77
2023/12/14 10:49:18;;;;;;;12.45;7.25;;;;;;;12.50;55.59;94088.94;5105970;28;20051;-77
2023/12/14 10:51:44;;;;;;;11.98;7.22;;;;;;;12.37;55.97;94088.44;5108663;28;20029;-76
2023/12/14 10:54:10;;;;;;;10.48;5.93;;;;;;;12.32;56.32;94091.81;5105184;28;20027;-76
2023/12/14 10:56:35;;;;;;;14.57;6.15;;;;;;;12.13;56.39;94096.69;5108482;27;20034;-76
2023/12/14 10:59:00;;;;;;;8.07;5.70;;;;;;;12.10;56.16;94092.88;5105416;28;20019;-76
2023/12/14 11:01:26;;;;;;;6.05;4.30;;;;;;;12.00;56.00;94101.66;5106584;28;20478;-77
2023/12/14 11:03:56;;;;;;;7.68;4.68;;;;;;;11.74;56.49;94110.28;5107302;28;20051;-77
2023/12/14 11:06:24;;;;;;;9.70;5.00;;;;;;;11.59;56.71;94115.69;5106763;28;20030;-76
2023/12/14 11:08:57;;;;;;;8.88;4.88;;;;;;;11.57;56.54;94117.34;5108242;28;20062;-76
2023/12/14 11:11:22;;;;;;;5.20;3.83;;;;;;;11.35;56.55;94121.06;5105249;28;20016;-76
2023/12/14 11:13:52;;;;;;;5.70;4.05;;;;;;;11.35;56.38;94134.06;5107884;28;20051;-77
2023/12/14 11:16:20;;;;;;;5.82;3.45;;;;;;;10.98;56.48;94131.34;5106471;28;20537;-75
2023/12/14 11:18:45;;;;;;;7.03;3.25;;;;;;;11.00;56.23;94139.13;5089120;28;20126;-76
2023/12/14 11:21:19;;;;;;;11.35;4.07;;;;;;;10.76;56.33;94141.72;5107062;28;20103;-76
2023/12/14 11:23:44;;;;;;;16.65;4.82;;;;;;;10.72;56.35;94147.38;5105325;28;20028;-75